createdAt,value
2023-05-09T00:02:20.153Z,61.68
2023-05-09T00:05:17.786Z,61.82
2023-05-09T00:08:15.315Z,61.97
2023-05-09T00:11:13.128Z,62.06
2023-05-09T00:14:10.594Z,62.23
2023-05-09T00:17:08.660Z,62.40
2023-05-09T00:20:09.023Z,62.49
2023-05-09T00:23:06.666Z,62.58
2023-05-09T00:26:04.350Z,62.62
2023-05-09T00:29:01.711Z,62.76
2023-05-09T00:31:59.415Z,62.78
2023-05-09T00:34:56.868Z,62.88
2023-05-09T00:37:54.555Z,63.04
2023-05-09T00:40:52.200Z,63.11
2023-05-09T00:43:49.580Z,63.16
2023-05-09T00:46:47.343Z,63.28
2023-05-09T00:49:44.718Z,63.36
2023-05-09T00:52:42.361Z,63.50
2023-05-09T00:55:39.729Z,63.61
2023-05-09T00:58:37.310Z,63.69
2023-05-09T01:01:34.767Z,63.81
2023-05-09T01:04:32.730Z,64.01
2023-05-09T01:07:30.339Z,64.17
2023-05-09T01:10:27.838Z,64.33
2023-05-09T01:13:26.426Z,64.47
2023-05-09T01:16:24.066Z,64.62
2023-05-09T01:19:21.784Z,64.70
2023-05-09T01:22:19.670Z,64.73
2023-05-09T01:25:17.355Z,64.85
2023-05-09T01:28:15.047Z,64.93
2023-05-09T01:31:12.756Z,64.99
2023-05-09T01:34:10.364Z,65.09
2023-05-09T01:37:07.792Z,65.18
2023-05-09T01:40:06.263Z,65.30
2023-05-09T01:43:03.645Z,65.44
2023-05-09T01:46:01.318Z,65.52
2023-05-09T01:48:58.893Z,65.54
2023-05-09T01:51:56.279Z,65.57
2023-05-09T01:54:53.888Z,65.70
2023-05-09T01:57:51.294Z,65.82
2023-05-09T02:00:49.018Z,65.94
2023-05-09T02:03:46.476Z,66.01
2023-05-09T02:06:45.029Z,66.08
2023-05-09T02:09:42.811Z,66.22
2023-05-09T02:12:40.527Z,66.28
2023-05-09T02:15:38.333Z,66.30
2023-05-09T02:18:36.734Z,66.31
2023-05-09T02:21:34.441Z,66.40
2023-05-09T02:24:31.821Z,66.47
2023-05-09T02:27:29.513Z,66.60
2023-05-09T02:30:26.933Z,66.74
2023-05-09T02:33:24.625Z,66.82
2023-05-09T02:36:22.021Z,66.92
2023-05-09T02:39:19.757Z,67.05
2023-05-09T02:42:17.196Z,67.17
2023-05-09T02:45:15.068Z,67.32
2023-05-09T02:48:13.071Z,67.39
2023-05-09T02:51:10.589Z,67.48
2023-05-09T02:54:09.171Z,67.58
2023-05-09T02:57:06.698Z,67.68
2023-05-09T03:00:06.668Z,67.78
2023-05-09T03:03:04.178Z,67.85
2023-05-09T03:06:01.933Z,68.02
2023-05-09T03:08:59.658Z,68.14
2023-05-09T03:11:57.473Z,68.22
2023-05-09T03:14:55.188Z,68.29
2023-05-09T03:17:52.977Z,68.40
2023-05-09T03:20:50.609Z,68.49
2023-05-09T03:23:47.976Z,68.57
2023-05-09T03:26:45.578Z,68.68
2023-05-09T03:29:43.323Z,68.86
2023-05-09T03:32:40.768Z,68.97
2023-05-09T03:35:38.452Z,69.07
2023-05-09T03:38:35.849Z,69.13
2023-05-09T03:41:33.390Z,69.19
2023-05-09T03:44:30.757Z,69.27
2023-05-09T03:47:28.527Z,69.32
2023-05-09T03:50:25.916Z,69.41
2023-05-09T03:53:23.500Z,69.50
2023-05-09T03:56:21.284Z,69.64
2023-05-09T03:59:18.725Z,69.74
2023-05-09T04:02:16.585Z,69.82
2023-05-09T04:05:14.167Z,69.90
2023-05-09T04:08:12.036Z,70.00
2023-05-09T04:11:09.481Z,70.01
2023-05-09T04:14:07.427Z,70.10
2023-05-09T04:17:04.965Z,70.13
2023-05-09T04:20:02.603Z,70.20
2023-05-09T04:23:01.490Z,70.21
2023-05-09T04:25:58.870Z,70.22
2023-05-09T04:28:56.511Z,70.20
2023-05-09T04:31:54.046Z,70.22
2023-05-09T04:34:51.861Z,70.22
2023-05-09T04:37:49.250Z,70.07
2023-05-09T04:40:47.762Z,69.86
2023-05-09T04:43:45.211Z,69.77
2023-05-09T04:46:42.866Z,69.63
2023-05-09T04:49:40.924Z,69.43
2023-05-09T04:52:38.324Z,69.33
2023-05-09T04:55:36.023Z,69.22
2023-05-09T04:58:34.545Z,69.09
2023-05-09T05:01:32.444Z,68.86
2023-05-09T05:04:30.023Z,68.59
2023-05-09T05:07:28.055Z,68.29
2023-05-09T05:10:25.786Z,68.06
2023-05-09T05:13:23.374Z,67.72
2023-05-09T05:16:21.349Z,67.60
2023-05-09T05:19:18.828Z,67.51
2023-05-09T05:22:16.433Z,67.42
2023-05-09T05:25:14.037Z,67.07
2023-05-09T05:28:11.846Z,66.89
2023-05-09T05:31:09.323Z,66.66
2023-05-09T05:34:07.098Z,66.38
2023-05-09T05:37:04.698Z,66.15
2023-05-09T05:40:02.101Z,65.93
2023-05-09T05:42:59.781Z,65.69
2023-05-09T05:45:57.359Z,65.53
2023-05-09T05:48:55.105Z,65.25
2023-05-09T05:51:53.173Z,64.79
2023-05-09T05:54:50.791Z,64.51
2023-05-09T05:57:48.699Z,64.33
2023-05-09T06:00:46.468Z,64.20
2023-05-09T06:03:44.213Z,64.04
2023-05-09T06:06:41.807Z,63.96
2023-05-09T06:09:40.075Z,63.61
2023-05-09T06:12:37.513Z,63.13
2023-05-09T06:15:35.700Z,62.63
2023-05-09T06:18:34.099Z,62.20
2023-05-09T06:21:31.703Z,62.09
2023-05-09T06:24:35.705Z,61.75
2023-05-09T06:27:33.803Z,61.26
2023-05-09T06:33:46.998Z,60.44
2023-05-09T06:36:44.385Z,60.03
2023-05-09T06:39:42.134Z,59.93
2023-05-09T06:42:39.855Z,59.85
2023-05-09T06:45:37.700Z,59.74
2023-05-09T06:48:35.197Z,59.18
2023-05-09T06:51:33.097Z,58.69
2023-05-09T06:54:30.507Z,58.27
2023-05-09T06:57:28.630Z,57.83
2023-05-09T07:00:26.093Z,56.63
2023-05-09T07:03:23.791Z,56.65
2023-05-09T07:06:21.438Z,56.11
2023-05-09T07:09:20.902Z,55.72
2023-05-09T07:12:18.318Z,55.54
2023-05-09T07:15:25.571Z,54.76
2023-05-09T07:18:26.579Z,54.03
2023-05-09T07:21:24.395Z,53.67
2023-05-09T07:24:21.827Z,53.63
2023-05-09T07:27:20.364Z,52.69
2023-05-09T07:30:18.111Z,51.68
2023-05-09T07:33:15.562Z,50.65
2023-05-09T07:36:15.175Z,50.37
2023-05-09T07:39:12.570Z,50.00
2023-05-09T07:42:10.305Z,49.03
2023-05-09T07:45:07.700Z,48.23
2023-05-09T07:48:05.596Z,47.97
2023-05-09T07:51:03.060Z,46.80
2023-05-09T07:54:00.858Z,46.55
2023-05-09T07:56:58.291Z,46.02
2023-05-09T07:59:56.191Z,45.83
2023-05-09T08:02:54.212Z,45.28
2023-05-09T08:05:52.631Z,44.78
2023-05-09T08:08:50.064Z,44.08
2023-05-09T08:11:47.853Z,43.44
2023-05-09T08:14:45.314Z,42.79
2023-05-09T08:17:42.988Z,42.64
2023-05-09T08:20:40.507Z,42.63
2023-05-09T08:23:38.335Z,42.47
2023-05-09T08:26:35.904Z,42.43
2023-05-09T08:29:33.649Z,42.42
2023-05-09T08:32:31.194Z,42.41
2023-05-09T08:35:28.922Z,41.53
2023-05-09T08:38:26.364Z,41.20
2023-05-09T08:41:24.214Z,40.72
2023-05-09T08:44:23.551Z,40.96
2023-05-09T08:47:21.688Z,41.15
2023-05-09T08:53:34.966Z,40.50
2023-05-09T08:56:32.387Z,39.96
2023-05-09T08:59:30.256Z,39.84
2023-05-09T09:02:27.679Z,39.81
2023-05-09T09:05:40.677Z,39.83
2023-05-09T09:08:39.137Z,39.23
2023-05-09T09:11:36.993Z,39.26
2023-05-09T09:14:34.395Z,39.25
2023-05-09T09:17:32.169Z,38.58
2023-05-09T09:20:30.400Z,38.04
2023-05-09T09:23:27.948Z,38.06
2023-05-09T09:26:29.738Z,37.44
2023-05-09T09:29:29.342Z,37.32
2023-05-09T09:32:27.325Z,37.44
2023-05-09T09:35:25.418Z,36.42
2023-05-09T09:38:22.842Z,35.38
2023-05-09T09:41:20.699Z,34.88
2023-05-09T09:44:18.989Z,34.42
2023-05-09T09:47:16.439Z,34.94
2023-05-09T09:50:14.509Z,34.69
2023-05-09T09:53:12.615Z,35.03
2023-05-09T09:56:10.494Z,34.67
2023-05-09T09:59:07.941Z,34.63
2023-05-09T10:02:08.254Z,34.56
2023-05-09T10:05:06.843Z,34.97
2023-05-09T10:08:04.825Z,34.58
2023-05-09T10:11:02.274Z,34.45
2023-05-09T10:14:00.388Z,34.53
2023-05-09T10:16:58.031Z,34.42
2023-05-09T10:19:56.085Z,34.36
2023-05-09T10:22:53.869Z,34.28
2023-05-09T10:25:53.741Z,33.85
2023-05-09T10:28:51.643Z,32.88
2023-05-09T10:31:49.545Z,33.21
2023-05-09T10:34:46.939Z,33.62
2023-05-09T10:37:44.687Z,33.57
2023-05-09T10:40:42.059Z,33.38
2023-05-09T10:43:39.972Z,32.92
2023-05-09T10:46:37.410Z,33.04
2023-05-09T10:49:37.116Z,32.65
2023-05-09T10:52:34.900Z,32.28
2023-05-09T10:55:32.995Z,32.37
2023-05-09T10:58:30.858Z,32.64
2023-05-09T11:01:28.765Z,32.38
2023-05-09T11:04:26.234Z,32.14
2023-05-09T11:07:24.045Z,32.05
2023-05-09T11:10:21.570Z,31.73
2023-05-09T11:13:19.824Z,31.13
2023-05-09T11:16:17.785Z,30.95
2023-05-09T11:19:15.729Z,30.60
2023-05-09T11:22:13.641Z,30.66
2023-05-09T11:25:11.044Z,30.60
2023-05-09T11:28:08.823Z,30.07
2023-05-09T11:31:06.583Z,30.12
2023-05-09T11:34:06.466Z,29.95
2023-05-09T11:37:04.420Z,29.66
2023-05-09T11:40:03.188Z,29.88
2023-05-09T11:43:02.706Z,29.65
2023-05-09T11:46:00.555Z,29.81
2023-05-09T11:48:58.726Z,30.02
2023-05-09T11:51:56.143Z,30.15
2023-05-09T11:54:54.169Z,29.94
2023-05-09T11:57:54.879Z,30.19
2023-05-09T12:00:52.678Z,30.60
2023-05-09T12:03:50.204Z,30.38
2023-05-09T12:06:48.087Z,30.05
2023-05-09T12:09:45.843Z,30.31
2023-05-09T12:12:43.342Z,30.71
2023-05-09T12:15:43.289Z,31.23
2023-05-09T12:18:41.217Z,31.49
2023-05-09T12:21:38.976Z,31.61
2023-05-09T12:24:36.947Z,32.17
2023-05-09T12:27:34.392Z,32.14
2023-05-09T12:30:32.386Z,31.99
2023-05-09T12:33:30.264Z,32.18
2023-05-09T12:36:27.657Z,32.16
2023-05-09T12:39:25.459Z,32.49
2023-05-09T12:42:23.243Z,32.59
2023-05-09T12:45:21.135Z,32.32
2023-05-09T12:48:18.567Z,32.09
2023-05-09T12:51:16.525Z,31.97
2023-05-09T12:54:15.050Z,31.74
2023-05-09T12:57:13.009Z,32.17
2023-05-09T13:00:10.454Z,32.58
2023-05-09T13:03:08.597Z,32.80
2023-05-09T13:06:06.746Z,33.36
2023-05-09T13:09:06.607Z,33.57
2023-05-09T13:12:04.643Z,33.56
2023-05-09T13:15:02.111Z,33.51
2023-05-09T13:18:00.097Z,33.28
2023-05-09T13:20:57.995Z,33.40
2023-05-09T13:23:55.466Z,33.88
2023-05-09T13:26:53.346Z,34.09
2023-05-09T13:29:51.303Z,33.96
2023-05-09T13:32:48.815Z,33.03
2023-05-09T13:35:49.522Z,33.27
2023-05-09T13:38:46.962Z,33.59
2023-05-09T13:41:44.949Z,33.48
2023-05-09T13:44:43.525Z,33.33
2023-05-09T13:47:40.923Z,33.00
2023-05-09T13:50:38.856Z,32.64
2023-05-09T13:53:38.705Z,32.88
2023-05-09T13:56:37.111Z,32.94
2023-05-09T13:59:34.562Z,33.03
2023-05-09T14:02:32.716Z,32.59
2023-05-09T14:05:30.180Z,32.39
2023-05-09T14:08:28.123Z,32.25
2023-05-09T14:11:26.224Z,32.58
2023-05-09T14:14:24.173Z,32.39
2023-05-09T14:17:22.060Z,32.13
2023-05-09T14:20:20.116Z,32.06
2023-05-09T14:23:17.520Z,31.94
2023-05-09T14:26:15.620Z,32.05
2023-05-09T14:29:13.505Z,32.22
2023-05-09T14:32:12.844Z,32.41
2023-05-09T14:35:11.081Z,32.54
2023-05-09T14:38:09.281Z,32.38
2023-05-09T14:41:07.414Z,32.33
2023-05-09T14:44:05.248Z,32.49
2023-05-09T14:47:02.785Z,32.45
2023-05-09T14:50:00.971Z,31.95
2023-05-09T14:52:59.770Z,32.22
2023-05-09T14:55:57.526Z,31.90
2023-05-09T14:58:54.961Z,31.89
2023-05-09T15:01:53.261Z,32.05
2023-05-09T15:04:51.456Z,32.51
2023-05-09T15:07:49.284Z,32.27
2023-05-09T15:10:46.644Z,32.56
2023-05-09T15:13:44.514Z,32.90
2023-05-09T15:16:42.029Z,33.06
2023-05-09T15:19:42.421Z,33.12
2023-05-09T15:22:40.028Z,33.11
2023-05-09T15:25:37.946Z,33.48
2023-05-09T15:28:35.402Z,33.69
2023-05-09T15:31:33.527Z,33.90
2023-05-09T15:34:31.136Z,34.05
2023-05-09T15:37:29.019Z,34.43
2023-05-09T15:40:26.474Z,34.53
2023-05-09T15:43:24.345Z,34.57
2023-05-09T15:46:22.298Z,34.79
2023-05-09T15:49:19.734Z,35.04
2023-05-09T15:52:17.604Z,35.31
2023-05-09T15:55:15.021Z,35.50
2023-05-09T15:58:14.526Z,35.49
2023-05-09T16:01:13.473Z,35.53
2023-05-09T16:04:11.381Z,35.79
2023-05-09T16:07:09.081Z,35.89
2023-05-09T16:10:07.736Z,35.47
2023-05-09T16:13:05.130Z,35.53
2023-05-09T16:16:03.821Z,35.72
2023-05-09T16:19:02.499Z,35.97
2023-05-09T16:22:00.472Z,36.15
2023-05-09T16:24:57.856Z,36.16
2023-05-09T16:27:56.529Z,36.50
2023-05-09T16:30:54.359Z,36.90
2023-05-09T16:33:52.116Z,37.31
2023-05-09T16:36:49.910Z,37.54
2023-05-09T16:39:47.771Z,37.83
2023-05-09T16:42:45.219Z,38.09
2023-05-09T16:45:43.316Z,38.38
2023-05-09T16:48:41.185Z,38.68
2023-05-09T16:51:39.136Z,38.97
2023-05-09T16:54:36.617Z,39.08
2023-05-09T16:57:35.504Z,39.31
2023-05-09T17:00:33.162Z,39.55
2023-05-09T17:03:30.943Z,39.90
2023-05-09T17:06:28.688Z,40.05
2023-05-09T17:09:26.470Z,40.21
2023-05-09T17:12:23.865Z,40.42
2023-05-09T17:15:21.602Z,40.77
2023-05-09T17:18:29.243Z,41.09
2023-05-09T17:21:31.381Z,41.08
2023-05-09T17:24:29.473Z,41.03
2023-05-09T17:27:27.833Z,41.19
2023-05-09T17:30:26.081Z,41.29
2023-05-09T17:33:23.480Z,41.48
2023-05-09T17:36:21.254Z,41.59
2023-05-09T17:39:18.745Z,41.67
2023-05-09T17:42:16.561Z,41.86
2023-05-09T17:45:13.968Z,42.09
2023-05-09T17:48:11.676Z,42.34
2023-05-09T17:51:09.342Z,42.55
2023-05-09T17:54:06.865Z,42.79
2023-05-09T17:57:04.700Z,42.99
2023-05-09T18:00:02.262Z,43.28
2023-05-09T18:03:01.070Z,43.59
2023-05-09T18:06:00.419Z,43.88
2023-05-09T18:08:58.386Z,44.13
2023-05-09T18:11:56.076Z,44.30
2023-05-09T18:14:53.576Z,44.51
2023-05-09T18:17:51.384Z,44.75
2023-05-09T18:20:49.196Z,44.89
2023-05-09T18:23:47.108Z,45.07
2023-05-09T18:26:44.503Z,45.22
2023-05-09T18:29:42.570Z,45.22
2023-05-09T18:32:40.024Z,45.32
2023-05-09T18:35:37.670Z,45.42
2023-05-09T18:38:38.569Z,45.72
2023-05-09T18:41:36.092Z,45.97
2023-05-09T18:44:33.813Z,46.21
2023-05-09T18:47:31.629Z,46.53
2023-05-09T18:50:29.592Z,46.80
2023-05-09T18:53:27.158Z,46.93
2023-05-09T18:56:27.383Z,46.89
2023-05-09T18:59:25.574Z,46.84
2023-05-09T19:02:23.912Z,46.88
2023-05-09T19:05:21.707Z,46.90
2023-05-09T19:08:19.572Z,46.88
2023-05-09T19:11:18.350Z,46.96
2023-05-09T19:14:17.467Z,47.00
2023-05-09T19:17:16.065Z,47.15
2023-05-09T19:20:14.122Z,47.40
2023-05-09T19:23:13.144Z,47.44
2023-05-09T19:26:11.531Z,47.59
2023-05-09T19:29:11.018Z,47.78
2023-05-09T19:32:11.180Z,47.96
2023-05-09T19:35:09.316Z,48.06
2023-05-09T19:38:10.047Z,48.18
2023-05-09T19:41:07.987Z,48.49
2023-05-09T19:44:10.868Z,48.65
2023-05-09T19:47:10.035Z,48.86
2023-05-09T19:50:10.105Z,49.06
2023-05-09T19:53:08.411Z,49.21
2023-05-09T19:56:09.103Z,49.33
2023-05-09T19:59:07.504Z,49.67
2023-05-09T20:02:05.333Z,49.95
2023-05-09T20:05:03.758Z,50.05
2023-05-09T20:08:02.271Z,50.22
2023-05-09T20:11:01.261Z,50.51
2023-05-09T20:13:59.748Z,50.77
2023-05-09T20:16:58.024Z,50.92
2023-05-09T20:19:57.633Z,51.13
2023-05-09T20:22:57.970Z,51.27
2023-05-09T20:25:56.951Z,51.42
2023-05-09T20:29:03.040Z,51.62
2023-05-09T20:32:01.311Z,51.88
2023-05-09T20:34:59.891Z,52.13
2023-05-09T20:37:58.070Z,52.33
2023-05-09T20:40:56.436Z,52.53
2023-05-09T20:43:55.442Z,52.71
2023-05-09T20:46:53.833Z,52.86
2023-05-09T20:49:51.943Z,53.13
2023-05-09T20:52:49.600Z,53.35
2023-05-09T20:55:49.005Z,53.58
2023-05-09T20:58:47.646Z,53.76
2023-05-09T21:01:45.255Z,53.97
2023-05-09T21:04:42.575Z,54.17
2023-05-09T21:07:40.272Z,54.31
2023-05-09T21:10:39.807Z,54.47
2023-05-09T21:13:37.285Z,54.60
2023-05-09T21:16:35.077Z,54.63
2023-05-09T21:19:34.175Z,54.79
2023-05-09T21:22:31.877Z,54.95
2023-05-09T21:25:29.208Z,55.13
2023-05-09T21:28:27.278Z,55.29
2023-05-09T21:31:25.017Z,55.45
2023-05-09T21:34:22.396Z,55.66
2023-05-09T21:37:20.020Z,55.86
2023-05-09T21:40:17.653Z,56.05
2023-05-09T21:43:15.766Z,56.22
2023-05-09T21:46:13.131Z,56.40
2023-05-09T21:49:10.684Z,56.71
2023-05-09T21:52:08.015Z,56.92
2023-05-09T21:55:05.785Z,57.07
2023-05-09T21:58:03.289Z,57.23
2023-05-09T22:01:00.650Z,57.38
2023-05-09T22:03:58.251Z,57.58
2023-05-09T22:06:55.661Z,57.76
2023-05-09T22:09:53.167Z,57.89
2023-05-09T22:12:50.612Z,58.11
2023-05-09T22:15:48.325Z,58.20
2023-05-09T22:18:45.674Z,58.38
2023-05-09T22:21:43.186Z,58.48
2023-05-09T22:24:41.923Z,58.61
2023-05-09T22:27:39.233Z,58.67
2023-05-09T22:30:37.425Z,58.79
2023-05-09T22:33:34.752Z,58.93
2023-05-09T22:36:32.379Z,59.04
2023-05-09T22:39:29.862Z,59.24
2023-05-09T22:42:27.395Z,59.35
2023-05-09T22:45:25.057Z,59.50
2023-05-09T22:48:22.459Z,59.64
2023-05-09T22:51:20.137Z,59.80
2023-05-09T22:54:20.596Z,59.96
2023-05-09T22:57:19.528Z,60.12
2023-05-09T23:00:17.085Z,60.24
2023-05-09T23:03:15.126Z,60.38
2023-05-09T23:06:12.710Z,60.54
2023-05-09T23:09:11.144Z,60.65
2023-05-09T23:12:09.831Z,60.76
2023-05-09T23:15:07.605Z,60.89
2023-05-09T23:18:05.276Z,60.97
2023-05-09T23:21:02.686Z,61.08
2023-05-09T23:24:00.499Z,61.20
2023-05-09T23:26:58.051Z,61.29
2023-05-09T23:29:55.724Z,61.33
2023-05-09T23:32:53.424Z,61.41
2023-05-09T23:35:51.124Z,61.53
2023-05-09T23:38:48.818Z,61.64
2023-05-09T23:41:46.239Z,61.71
2023-05-09T23:44:44.136Z,61.78
2023-05-09T23:47:41.602Z,61.83
2023-05-09T23:50:39.274Z,61.96
2023-05-09T23:53:36.696Z,62.12
2023-05-09T23:56:34.400Z,62.35
2023-05-09T23:59:32.051Z,62.55
